Terminal Aerodrome Forecast
Issued by NWS Pendleton, OR

Home | Current Version | Previous Version | Text Only | Print | Product List | Glossary On
Versions: 1 2 3 4 5 6 7 8 9 10 11 12 13 14 15 16
000
FTUS46 KPDT 242300
TAFPDT
TAF
KPDT 242320Z 2500/2524 04014KT P6SM -RA BKN060 OVC080
      TEMPO 2500/2502 5SM RA OVC030
     FM250300 04007KT P6SM BKN080 BKN250
     FM250600 VRB05KT P6SM FEW030 BKN250
     FM251200 11005KT P6SM SCT200
     FM251800 20011KT P6SM BKN120=

USA.gov is the U.S. government's official web portal to all federal, state and local government web resources and services.